createdAt,value
2018-02-03T00:00:03.943Z,0.00
2018-02-03T00:01:03.918Z,0.00
2018-02-03T00:02:03.895Z,0.00
2018-02-03T00:03:03.872Z,0.00
2018-02-03T00:04:03.848Z,0.00
2018-02-03T00:05:03.824Z,0.00
2018-02-03T00:06:03.800Z,0.00
2018-02-03T00:07:03.778Z,0.00
2018-02-03T00:08:03.754Z,0.00
2018-02-03T00:09:03.731Z,0.00
2018-02-03T00:10:03.708Z,0.00
2018-02-03T00:11:03.684Z,0.00
2018-02-03T00:12:03.661Z,0.00
2018-02-03T00:13:03.636Z,0.00
2018-02-03T00:14:03.614Z,0.00
2018-02-03T00:15:03.589Z,0.00
2018-02-03T00:16:03.567Z,0.00
2018-02-03T00:17:03.542Z,0.00
2018-02-03T00:18:03.519Z,0.00
2018-02-03T00:19:03.497Z,0.00
2018-02-03T00:20:03.476Z,0.00
2018-02-03T00:21:03.448Z,0.00
2018-02-03T00:22:03.427Z,0.00
2018-02-03T00:23:03.406Z,0.00
2018-02-03T00:24:03.384Z,0.00
2018-02-03T00:25:03.355Z,0.00
2018-02-03T00:26:03.332Z,0.00
2018-02-03T00:27:03.308Z,0.00
2018-02-03T00:28:03.286Z,0.00
2018-02-03T00:29:03.261Z,0.00
2018-02-03T00:30:03.237Z,0.00
2018-02-03T00:31:03.213Z,0.00
2018-02-03T00:32:03.192Z,0.00
2018-02-03T00:33:03.166Z,0.00
2018-02-03T00:34:03.147Z,0.00
2018-02-03T00:35:03.119Z,0.00
2018-02-03T00:36:03.097Z,0.00
2018-02-03T00:37:03.071Z,0.00
2018-02-03T00:38:03.050Z,0.00
2018-02-03T00:39:03.026Z,0.00
2018-02-03T00:40:03.003Z,0.00
2018-02-03T00:41:02.978Z,0.00
2018-02-03T00:42:02.957Z,0.00
2018-02-03T00:43:02.932Z,0.00
2018-02-03T00:44:02.908Z,0.00
2018-02-03T00:45:02.885Z,0.00
2018-02-03T00:46:02.861Z,0.00
2018-02-03T00:47:02.837Z,0.00
2018-02-03T00:48:02.817Z,0.00
2018-02-03T00:49:02.789Z,0.00
2018-02-03T00:50:02.767Z,0.00
2018-02-03T00:51:02.743Z,0.00
2018-02-03T00:52:02.720Z,0.00
2018-02-03T00:53:02.695Z,0.00
2018-02-03T00:54:02.673Z,0.00
2018-02-03T00:55:02.650Z,0.00
2018-02-03T00:56:02.628Z,0.00
2018-02-03T00:57:02.602Z,0.00
2018-02-03T00:58:02.577Z,0.00
2018-02-03T00:59:02.555Z,0.00
2018-02-03T01:00:02.532Z,0.00
2018-02-03T01:01:02.517Z,0.00
2018-02-03T01:02:02.484Z,0.00
2018-02-03T01:03:02.462Z,0.00
2018-02-03T01:04:02.437Z,0.00
2018-02-03T01:05:02.413Z,0.00
2018-02-03T01:06:02.391Z,0.00
2018-02-03T01:07:02.367Z,0.00
2018-02-03T01:08:02.343Z,0.00
2018-02-03T01:09:02.319Z,0.00
2018-02-03T01:10:02.296Z,0.00
2018-02-03T01:11:02.274Z,0.00
2018-02-03T01:12:02.249Z,0.00
2018-02-03T01:13:02.226Z,0.00
2018-02-03T01:14:02.203Z,0.00
2018-02-03T01:15:02.179Z,0.00
2018-02-03T01:16:02.154Z,0.00
2018-02-03T01:17:02.131Z,0.00
2018-02-03T01:18:02.106Z,0.00
2018-02-03T01:19:02.084Z,0.00
2018-02-03T01:20:02.059Z,0.00
2018-02-03T01:21:02.036Z,0.00
2018-02-03T01:22:02.012Z,0.00
2018-02-03T01:23:01.989Z,0.00
2018-02-03T01:24:01.967Z,0.00
2018-02-03T01:25:01.944Z,0.00
2018-02-03T01:26:01.918Z,0.00
2018-02-03T01:27:01.895Z,0.00
2018-02-03T01:28:01.870Z,0.00
2018-02-03T01:29:01.846Z,0.00
2018-02-03T01:30:01.825Z,0.00
2018-02-03T01:31:01.801Z,0.00
2018-02-03T01:32:01.778Z,0.00
2018-02-03T01:33:01.755Z,0.00
2018-02-03T01:34:01.730Z,0.00
2018-02-03T01:35:01.707Z,0.00
2018-02-03T01:36:01.683Z,0.00
2018-02-03T01:37:01.659Z,0.00
2018-02-03T01:38:01.636Z,0.00
2018-02-03T01:39:01.612Z,0.00
2018-02-03T01:40:01.589Z,0.00
2018-02-03T01:41:01.568Z,0.00
2018-02-03T01:42:01.540Z,0.00
2018-02-03T01:43:01.518Z,0.00
2018-02-03T01:44:01.495Z,0.00
2018-02-03T01:45:01.469Z,0.00
2018-02-03T01:46:01.449Z,0.00
2018-02-03T01:47:01.423Z,0.00
2018-02-03T01:48:01.400Z,0.00
2018-02-03T01:49:01.375Z,0.00
2018-02-03T01:50:01.353Z,0.00
2018-02-03T01:51:01.327Z,0.00
2018-02-03T01:52:01.304Z,0.00
2018-02-03T01:53:01.285Z,0.00
2018-02-03T01:54:01.258Z,0.00
2018-02-03T01:55:01.234Z,0.00
2018-02-03T01:56:01.211Z,0.00
2018-02-03T01:57:01.192Z,0.00
2018-02-03T01:58:01.162Z,0.00
2018-02-03T01:59:01.140Z,0.00
2018-02-03T02:00:01.115Z,0.00
2018-02-03T02:01:01.091Z,0.00
2018-02-03T02:02:01.068Z,0.00
2018-02-03T02:03:01.044Z,0.00
2018-02-03T02:04:01.022Z,0.00
2018-02-03T02:05:00.997Z,0.00
2018-02-03T02:06:00.974Z,0.00
2018-02-03T02:07:00.951Z,0.00
2018-02-03T02:08:00.926Z,0.00
2018-02-03T02:09:00.903Z,0.00
2018-02-03T02:10:00.878Z,0.00
2018-02-03T02:11:00.856Z,0.00
2018-02-03T02:12:00.833Z,0.00
2018-02-03T02:13:00.808Z,0.00
2018-02-03T02:14:00.785Z,0.00
2018-02-03T02:15:00.760Z,0.00
2018-02-03T02:16:00.738Z,0.00
2018-02-03T02:17:00.713Z,0.00
2018-02-03T02:18:00.690Z,0.00
2018-02-03T02:19:00.666Z,0.00
2018-02-03T02:20:00.643Z,0.00
2018-02-03T02:21:00.619Z,0.00
2018-02-03T02:22:00.597Z,0.00
2018-02-03T02:23:00.571Z,0.00
2018-02-03T02:24:00.549Z,0.00
2018-02-03T02:25:00.525Z,0.00
2018-02-03T02:26:00.501Z,0.00
2018-02-03T02:27:00.477Z,0.00
2018-02-03T02:28:00.454Z,0.00
2018-02-03T02:29:00.429Z,0.00
2018-02-03T02:30:00.407Z,0.00
2018-02-03T02:31:00.385Z,0.00
2018-02-03T02:32:00.359Z,0.00
2018-02-03T02:33:00.335Z,0.00
2018-02-03T02:34:00.314Z,0.00
2018-02-03T02:35:00.289Z,0.00
2018-02-03T02:36:00.267Z,0.00
2018-02-03T02:37:00.241Z,0.00
2018-02-03T02:38:00.220Z,0.00
2018-02-03T02:39:00.194Z,0.00
2018-02-03T02:40:00.171Z,0.00
2018-02-03T02:41:00.145Z,0.00
2018-02-03T02:42:00.122Z,0.00
2018-02-03T02:43:00.098Z,0.00
2018-02-03T02:44:00.075Z,0.00
2018-02-03T02:45:00.054Z,0.00
2018-02-03T02:46:00.029Z,0.00
2018-02-03T02:47:00.005Z,0.00
2018-02-03T02:47:59.981Z,0.00
2018-02-03T02:48:59.955Z,0.00
2018-02-03T02:49:59.932Z,0.00
2018-02-03T02:50:59.909Z,0.00
2018-02-03T02:51:59.885Z,0.00
2018-02-03T02:52:59.861Z,0.00
2018-02-03T02:53:59.842Z,0.00
2018-02-03T02:54:59.814Z,0.00
2018-02-03T02:55:59.792Z,0.00
2018-02-03T02:56:59.766Z,0.00
2018-02-03T02:57:59.742Z,0.00
2018-02-03T02:58:59.719Z,0.00
2018-02-03T02:59:59.705Z,0.00
2018-02-03T03:00:59.671Z,0.00
2018-02-03T03:01:59.648Z,0.00
2018-02-03T03:02:59.624Z,0.00
2018-02-03T03:03:59.601Z,0.00
2018-02-03T03:04:59.578Z,0.00
2018-02-03T03:05:59.554Z,0.00
2018-02-03T03:06:59.528Z,0.00
2018-02-03T03:07:59.506Z,0.00
2018-02-03T03:08:59.482Z,0.00
2018-02-03T03:09:59.458Z,0.00
2018-02-03T03:10:59.434Z,0.00
2018-02-03T03:11:59.412Z,0.00
2018-02-03T03:12:59.387Z,0.00
2018-02-03T03:13:59.363Z,0.00
2018-02-03T03:14:59.340Z,0.00
2018-02-03T03:15:59.315Z,0.00
2018-02-03T03:16:59.292Z,0.00
2018-02-03T03:17:59.268Z,0.00
2018-02-03T03:18:59.244Z,0.00
2018-02-03T03:19:59.220Z,0.00
2018-02-03T03:20:59.196Z,0.00
2018-02-03T03:21:59.172Z,0.00
2018-02-03T03:22:59.150Z,0.00
2018-02-03T03:23:59.130Z,0.00
2018-02-03T03:24:59.102Z,0.00
2018-02-03T03:25:59.077Z,0.00
2018-02-03T03:26:59.055Z,0.00
2018-02-03T03:27:59.030Z,0.00
2018-02-03T03:28:59.006Z,0.00
2018-02-03T03:29:58.983Z,0.00
2018-02-03T03:30:58.960Z,0.00
2018-02-03T03:31:58.936Z,0.00
2018-02-03T03:32:58.912Z,0.00
2018-02-03T03:33:58.890Z,0.00
2018-02-03T03:34:58.865Z,0.00
2018-02-03T03:35:58.841Z,0.00
2018-02-03T03:36:58.817Z,0.00
2018-02-03T03:37:58.793Z,0.00
2018-02-03T03:38:58.820Z,0.00
2018-02-03T03:39:58.746Z,0.00
2018-02-03T03:40:58.727Z,0.00
2018-02-03T03:41:58.699Z,0.00
2018-02-03T03:42:58.675Z,0.00
2018-02-03T03:43:58.654Z,0.00
2018-02-03T03:44:58.627Z,0.00
2018-02-03T03:45:58.603Z,0.00
2018-02-03T03:46:58.579Z,0.00
2018-02-03T03:47:58.555Z,0.00
2018-02-03T03:48:58.532Z,0.00
2018-02-03T03:49:58.507Z,0.00
2018-02-03T03:50:58.485Z,0.00
2018-02-03T03:51:58.461Z,0.00
2018-02-03T03:52:58.435Z,0.00
2018-02-03T03:53:58.413Z,0.00
2018-02-03T03:54:58.389Z,0.00
2018-02-03T03:55:59.568Z,0.00
2018-02-03T03:56:58.341Z,0.00
2018-02-03T03:57:58.318Z,0.00
2018-02-03T03:58:58.294Z,0.00
2018-02-03T03:59:58.271Z,0.00
2018-02-03T04:00:58.245Z,0.00
2018-02-03T04:01:58.223Z,0.00
2018-02-03T04:02:58.200Z,0.00
2018-02-03T04:03:58.176Z,0.00
2018-02-03T04:04:58.151Z,0.00
2018-02-03T04:05:58.128Z,0.00
2018-02-03T04:06:58.105Z,0.00
2018-02-03T04:07:58.081Z,0.00
2018-02-03T04:08:58.057Z,0.00
2018-02-03T04:09:58.034Z,0.00
2018-02-03T04:10:58.010Z,0.00
2018-02-03T04:11:57.986Z,0.00
2018-02-03T04:12:57.962Z,0.00
2018-02-03T04:13:57.939Z,0.00
2018-02-03T04:14:57.915Z,0.00
2018-02-03T04:15:57.892Z,0.00
2018-02-03T04:16:57.868Z,0.00
2018-02-03T04:17:57.845Z,0.00
2018-02-03T04:18:57.820Z,0.00
2018-02-03T04:19:57.798Z,0.00
2018-02-03T04:20:57.773Z,0.00
2018-02-03T04:21:57.750Z,0.00
2018-02-03T04:22:57.727Z,0.00
2018-02-03T04:23:57.702Z,0.00
2018-02-03T04:24:57.678Z,0.00
2018-02-03T04:25:57.655Z,0.00
2018-02-03T04:26:57.633Z,0.00
2018-02-03T04:27:57.609Z,0.00
2018-02-03T04:28:57.590Z,0.00
2018-02-03T04:29:57.561Z,0.00
2018-02-03T04:30:57.538Z,0.00
2018-02-03T04:31:57.514Z,0.00
2018-02-03T04:32:57.490Z,0.00
2018-02-03T04:33:57.467Z,0.00
2018-02-03T04:34:57.443Z,0.00
2018-02-03T04:35:57.420Z,0.00
2018-02-03T04:36:57.397Z,0.00
2018-02-03T04:37:57.371Z,0.00
2018-02-03T04:38:57.348Z,0.00
2018-02-03T04:39:57.325Z,0.00
2018-02-03T04:40:57.302Z,0.00
2018-02-03T04:41:57.278Z,0.00
2018-02-03T04:42:57.255Z,0.00
2018-02-03T04:43:57.233Z,0.00
2018-02-03T04:44:57.208Z,0.00
2018-02-03T04:45:57.184Z,0.00
2018-02-03T04:46:57.165Z,0.00
2018-02-03T04:47:57.138Z,0.00
2018-02-03T04:48:57.112Z,0.00
2018-02-03T04:49:57.089Z,0.00
2018-02-03T04:50:57.067Z,0.00
2018-02-03T04:51:57.044Z,0.00
2018-02-03T04:52:57.019Z,0.00
2018-02-03T04:53:56.995Z,0.00
2018-02-03T04:54:56.971Z,0.00
2018-02-03T04:55:56.950Z,0.00
2018-02-03T04:56:56.925Z,0.00
2018-02-03T04:57:56.902Z,0.00
2018-02-03T04:58:56.879Z,0.00
2018-02-03T04:59:56.855Z,0.00
2018-02-03T05:00:56.831Z,0.00
2018-02-03T05:01:56.808Z,0.00
2018-02-03T05:02:56.784Z,0.00
2018-02-03T05:03:56.761Z,0.00
2018-02-03T05:04:56.736Z,0.00
2018-02-03T05:05:56.713Z,0.00
2018-02-03T05:06:56.691Z,0.00
2018-02-03T05:07:56.667Z,0.00
2018-02-03T05:08:56.643Z,0.00
2018-02-03T05:09:56.620Z,0.00
2018-02-03T05:10:56.597Z,0.00
2018-02-03T05:11:56.573Z,0.00
2018-02-03T05:12:56.549Z,0.00
2018-02-03T05:13:56.526Z,0.00
2018-02-03T05:14:56.502Z,0.00
2018-02-03T05:15:56.479Z,0.00
2018-02-03T05:16:56.484Z,0.00
2018-02-03T05:17:56.431Z,0.00
2018-02-03T05:18:56.408Z,0.00
2018-02-03T05:19:56.385Z,0.00
2018-02-03T05:20:56.362Z,0.00
2018-02-03T05:21:56.336Z,0.00
2018-02-03T05:22:56.313Z,0.00
2018-02-03T05:23:56.291Z,0.00
2018-02-03T05:24:56.266Z,0.00
2018-02-03T05:25:56.243Z,0.00
2018-02-03T05:26:56.219Z,0.00
2018-02-03T05:27:56.256Z,0.00
2018-02-03T05:28:56.172Z,0.00
2018-02-03T05:29:56.148Z,0.00
2018-02-03T05:30:56.125Z,0.00
2018-02-03T05:31:56.103Z,0.00
2018-02-03T05:32:56.078Z,0.00
2018-02-03T05:33:56.055Z,0.00
2018-02-03T05:34:56.032Z,0.00
2018-02-03T05:35:56.008Z,0.00
2018-02-03T05:36:55.983Z,0.00
2018-02-03T05:37:55.967Z,0.00
2018-02-03T05:38:55.937Z,0.00
2018-02-03T05:39:55.913Z,0.00
2018-02-03T05:40:55.890Z,0.00
2018-02-03T05:41:55.865Z,0.00
2018-02-03T05:42:55.843Z,0.00
2018-02-03T05:43:55.819Z,0.00
2018-02-03T05:44:55.794Z,0.00
2018-02-03T05:45:55.771Z,0.00
2018-02-03T05:46:55.748Z,0.00
2018-02-03T05:47:55.725Z,0.00
2018-02-03T05:48:55.700Z,0.00
2018-02-03T05:49:55.678Z,0.00
2018-02-03T05:50:55.653Z,0.00
2018-02-03T05:51:55.631Z,0.00
2018-02-03T05:52:55.606Z,0.00
2018-02-03T05:53:55.584Z,0.00
2018-02-03T05:54:55.559Z,0.00
2018-02-03T05:55:55.538Z,0.00
2018-02-03T05:56:55.512Z,0.00
2018-02-03T05:57:55.492Z,0.00
2018-02-03T05:58:55.465Z,0.00
2018-02-03T05:59:55.443Z,0.00
2018-02-03T06:00:55.417Z,0.00
2018-02-03T06:01:55.395Z,0.00
2018-02-03T06:02:55.371Z,0.00
2018-02-03T06:03:55.348Z,0.00
2018-02-03T06:04:55.324Z,0.00
2018-02-03T06:05:55.301Z,0.00
2018-02-03T06:06:55.277Z,0.00
2018-02-03T06:07:55.254Z,0.00
2018-02-03T06:08:55.229Z,0.00
2018-02-03T06:09:55.206Z,0.00
2018-02-03T06:10:55.183Z,0.00
2018-02-03T06:11:55.160Z,0.00
2018-02-03T06:12:55.135Z,0.00
2018-02-03T06:13:55.113Z,0.00
2018-02-03T06:14:55.089Z,0.00
2018-02-03T06:15:55.065Z,0.00
2018-02-03T06:16:55.042Z,0.00
2018-02-03T06:17:55.018Z,0.00
2018-02-03T06:18:54.995Z,0.00
2018-02-03T06:19:54.972Z,0.00
2018-02-03T06:20:54.949Z,0.00
2018-02-03T06:21:54.924Z,0.00
2018-02-03T06:22:54.902Z,0.00
2018-02-03T06:23:54.878Z,0.00
2018-02-03T06:24:54.852Z,0.00
2018-02-03T06:25:54.830Z,0.00
2018-02-03T06:26:54.806Z,0.00
2018-02-03T06:27:54.785Z,0.00
2018-02-03T06:28:54.758Z,0.00
2018-02-03T06:29:54.736Z,0.00
2018-02-03T06:30:54.714Z,0.00
2018-02-03T06:31:54.689Z,0.00
2018-02-03T06:32:54.665Z,0.00
2018-02-03T06:33:54.640Z,0.00
2018-02-03T06:34:54.617Z,0.00
2018-02-03T06:35:54.600Z,0.00
2018-02-03T06:36:54.570Z,0.00
2018-02-03T06:37:54.548Z,0.00
2018-02-03T06:38:54.524Z,0.00
2018-02-03T06:39:54.501Z,0.00
2018-02-03T06:40:54.476Z,0.00
2018-02-03T06:41:54.454Z,0.00
2018-02-03T06:42:54.430Z,0.00
2018-02-03T06:43:54.407Z,0.00
2018-02-03T06:44:54.382Z,0.00
2018-02-03T06:45:54.358Z,0.00
2018-02-03T06:46:54.336Z,0.00
2018-02-03T06:47:54.312Z,0.00
2018-02-03T06:48:54.288Z,0.00
2018-02-03T06:49:54.264Z,0.00
2018-02-03T06:50:54.281Z,0.00
2018-02-03T06:51:54.217Z,0.00
2018-02-03T06:52:54.193Z,0.00
2018-02-03T06:53:54.174Z,0.00
2018-02-03T06:54:54.148Z,0.00
2018-02-03T06:55:54.124Z,0.00
2018-02-03T06:56:54.100Z,0.00
2018-02-03T06:57:54.082Z,0.00
2018-02-03T06:58:54.056Z,0.00
2018-02-03T06:59:54.046Z,0.00
2018-02-03T07:00:54.006Z,0.00
2018-02-03T07:01:53.983Z,0.00
2018-02-03T07:02:53.962Z,0.00
2018-02-03T07:03:53.936Z,0.00
2018-02-03T07:04:53.911Z,0.00
2018-02-03T07:05:53.890Z,0.00
2018-02-03T07:06:53.864Z,0.00
2018-02-03T07:07:53.844Z,0.00
2018-02-03T07:08:53.816Z,0.00
2018-02-03T07:09:53.794Z,0.00
2018-02-03T07:10:53.771Z,0.00
2018-02-03T07:11:53.747Z,0.00
2018-02-03T07:12:53.724Z,0.00
2018-02-03T07:13:53.701Z,0.00
2018-02-03T07:14:53.676Z,0.00
2018-02-03T07:15:53.653Z,0.00
2018-02-03T07:16:53.630Z,0.00
2018-02-03T07:17:53.606Z,0.00
2018-02-03T07:18:53.584Z,0.00
2018-02-03T07:19:53.560Z,0.00
2018-02-03T07:20:53.536Z,0.00
2018-02-03T07:21:53.513Z,0.00
2018-02-03T07:22:53.490Z,0.00
2018-02-03T07:23:53.467Z,4.00
2018-02-03T07:24:53.442Z,4.00
2018-02-03T07:25:53.418Z,4.00
2018-02-03T07:26:53.394Z,0.00
2018-02-03T07:27:53.372Z,0.00
2018-02-03T07:28:53.348Z,0.00
2018-02-03T07:29:53.324Z,0.00
2018-02-03T07:30:53.302Z,0.00
2018-02-03T07:31:53.278Z,0.00
2018-02-03T07:32:53.254Z,0.00
2018-02-03T07:33:53.229Z,0.00
2018-02-03T07:34:53.208Z,0.00
2018-02-03T07:35:53.184Z,0.00
2018-02-03T07:36:53.160Z,0.00
2018-02-03T07:37:53.137Z,0.00
2018-02-03T07:38:53.112Z,0.00
2018-02-03T07:39:53.090Z,4.00
2018-02-03T07:40:53.066Z,4.00
2018-02-03T07:41:53.043Z,4.00
2018-02-03T07:42:53.020Z,4.00
2018-02-03T07:43:52.999Z,4.00
2018-02-03T07:44:52.980Z,4.00
2018-02-03T07:45:52.948Z,0.00
2018-02-03T07:46:52.925Z,0.00
2018-02-03T07:47:52.950Z,0.00
2018-02-03T07:48:52.879Z,0.00
2018-02-03T07:49:52.854Z,0.00
2018-02-03T07:50:52.831Z,0.00
2018-02-03T07:51:52.808Z,4.00
2018-02-03T07:52:52.784Z,4.00
2018-02-03T07:53:52.760Z,0.00
2018-02-03T07:54:52.737Z,0.00
2018-02-03T07:55:52.715Z,0.00
2018-02-03T07:56:52.689Z,0.00
2018-02-03T07:57:52.665Z,4.00
2018-02-03T07:58:52.644Z,4.00
2018-02-03T07:59:52.620Z,4.00
2018-02-03T08:00:52.596Z,4.00
2018-02-03T08:01:52.572Z,0.00
2018-02-03T08:02:52.548Z,4.00
2018-02-03T08:03:52.525Z,4.00
2018-02-03T08:04:52.501Z,4.00
2018-02-03T08:05:52.481Z,4.00
2018-02-03T08:06:52.455Z,4.00
2018-02-03T08:07:52.433Z,4.00
2018-02-03T08:08:52.408Z,4.00
2018-02-03T08:09:52.384Z,4.00
2018-02-03T08:10:52.361Z,4.00
2018-02-03T08:11:52.338Z,4.00
2018-02-03T08:12:52.314Z,8.00
2018-02-03T08:13:52.289Z,4.00
2018-02-03T08:14:52.267Z,4.00
2018-02-03T08:15:52.244Z,4.00
2018-02-03T08:16:52.218Z,4.00
2018-02-03T08:17:52.197Z,4.00
2018-02-03T08:18:52.184Z,4.00
2018-02-03T08:19:52.150Z,8.00
2018-02-03T08:20:52.126Z,8.00
2018-02-03T08:21:52.101Z,4.00
2018-02-03T08:22:52.078Z,8.00
2018-02-03T08:23:52.056Z,8.00
2018-02-03T08:24:52.032Z,8.00
2018-02-03T08:25:52.009Z,8.00
2018-02-03T08:26:51.985Z,8.00
2018-02-03T08:27:51.962Z,8.00
2018-02-03T08:28:51.938Z,8.00
2018-02-03T08:29:51.915Z,8.00
2018-02-03T08:30:51.892Z,12.00
2018-02-03T08:31:51.868Z,12.00
2018-02-03T08:32:51.844Z,12.00
2018-02-03T08:33:51.835Z,16.00
2018-02-03T08:34:51.797Z,16.00
2018-02-03T08:35:51.775Z,16.00
2018-02-03T08:36:51.749Z,12.00
2018-02-03T08:37:51.800Z,16.00
2018-02-03T08:38:51.704Z,16.00
2018-02-03T08:39:51.679Z,16.00
2018-02-03T08:40:51.656Z,16.00
2018-02-03T08:41:51.632Z,20.00
2018-02-03T08:42:51.610Z,20.00
2018-02-03T08:43:51.587Z,24.00
2018-02-03T08:44:51.562Z,24.00
2018-02-03T08:45:51.538Z,24.00
2018-02-03T08:46:51.515Z,28.00
2018-02-03T08:47:51.493Z,28.00
2018-02-03T08:48:51.468Z,36.00
2018-02-03T08:49:51.445Z,40.00
2018-02-03T08:50:51.422Z,44.00
2018-02-03T08:51:51.400Z,44.00
2018-02-03T08:52:51.375Z,44.00
2018-02-03T08:53:51.351Z,40.00
2018-02-03T08:54:51.328Z,44.00
2018-02-03T08:55:51.305Z,40.00
2018-02-03T08:56:51.281Z,40.00
2018-02-03T08:57:51.257Z,40.00
2018-02-03T08:58:51.234Z,40.00
2018-02-03T08:59:51.211Z,40.00
2018-02-03T09:00:51.188Z,40.00
2018-02-03T09:01:51.164Z,44.00
2018-02-03T09:02:51.142Z,44.00
2018-02-03T09:03:51.119Z,44.00
2018-02-03T09:04:51.095Z,48.00
2018-02-03T09:05:51.072Z,52.00
2018-02-03T09:06:51.049Z,60.00
2018-02-03T09:07:51.026Z,68.00
2018-02-03T09:08:51.002Z,68.00
2018-02-03T09:09:50.979Z,68.00
2018-02-03T09:10:50.957Z,72.00
2018-02-03T09:11:50.933Z,76.00
2018-02-03T09:12:50.908Z,84.00
2018-02-03T09:13:50.887Z,80.00
2018-02-03T09:14:50.863Z,96.00
2018-02-03T09:15:50.841Z,92.00
2018-02-03T09:16:50.818Z,76.00
2018-02-03T09:17:50.796Z,84.00
2018-02-03T09:18:50.772Z,76.00
2018-02-03T09:19:50.749Z,104.00
2018-02-03T09:20:50.726Z,96.00
2018-02-03T09:21:50.702Z,56.00
2018-02-03T09:22:50.679Z,100.00
2018-02-03T09:23:50.657Z,88.00
2018-02-03T09:24:50.632Z,100.00
2018-02-03T09:25:50.611Z,104.00
2018-02-03T09:26:50.588Z,112.00
2018-02-03T09:27:50.564Z,84.00
2018-02-03T09:28:50.541Z,60.00
2018-02-03T09:29:50.519Z,64.00
2018-02-03T09:30:50.496Z,44.00
2018-02-03T09:31:50.488Z,44.00
2018-02-03T09:32:50.452Z,40.00
2018-02-03T09:33:50.426Z,44.00
2018-02-03T09:34:50.403Z,40.00
2018-02-03T09:35:50.381Z,36.00
2018-02-03T09:36:50.358Z,32.00
2018-02-03T09:37:50.335Z,32.00
2018-02-03T09:38:50.311Z,28.00
2018-02-03T09:39:50.289Z,32.00
2018-02-03T09:40:50.266Z,28.00
2018-02-03T09:41:50.242Z,28.00
2018-02-03T09:42:50.221Z,24.00
2018-02-03T09:43:50.200Z,24.00
2018-02-03T09:44:50.173Z,28.00
2018-02-03T09:45:50.150Z,24.00
2018-02-03T09:46:50.128Z,28.00
2018-02-03T09:47:50.106Z,28.00
2018-02-03T09:48:50.082Z,28.00
2018-02-03T09:49:50.059Z,24.00
2018-02-03T09:50:50.036Z,28.00
2018-02-03T09:51:50.014Z,28.00
2018-02-03T09:52:49.996Z,28.00
2018-02-03T09:53:49.967Z,24.00
2018-02-03T09:54:49.944Z,28.00
2018-02-03T09:55:49.922Z,24.00
2018-02-03T09:56:49.897Z,28.00
2018-02-03T09:57:49.874Z,28.00
2018-02-03T09:58:49.852Z,28.00
2018-02-03T09:59:49.830Z,28.00
2018-02-03T10:00:49.805Z,24.00
2018-02-03T10:01:49.782Z,24.00
2018-02-03T10:02:49.759Z,24.00
2018-02-03T10:03:49.736Z,24.00
2018-02-03T10:04:49.714Z,24.00
2018-02-03T10:05:49.693Z,28.00
2018-02-03T10:06:49.668Z,24.00
2018-02-03T10:07:49.645Z,24.00
2018-02-03T10:08:49.621Z,28.00
2018-02-03T10:09:49.598Z,28.00
2018-02-03T10:10:49.575Z,28.00
2018-02-03T10:11:49.553Z,28.00
2018-02-03T10:12:49.528Z,32.00
2018-02-03T10:13:49.505Z,32.00
2018-02-03T10:14:49.483Z,32.00
2018-02-03T10:15:49.459Z,36.00
2018-02-03T10:16:49.463Z,32.00
2018-02-03T10:17:49.412Z,32.00
2018-02-03T10:18:49.390Z,28.00
2018-02-03T10:19:49.368Z,24.00
2018-02-03T10:20:49.344Z,24.00
2018-02-03T10:21:49.321Z,24.00
2018-02-03T10:22:49.299Z,20.00
2018-02-03T10:23:49.275Z,20.00
2018-02-03T10:24:49.252Z,24.00
2018-02-03T10:25:49.228Z,20.00
2018-02-03T10:26:49.206Z,20.00
2018-02-03T10:27:49.184Z,20.00
2018-02-03T10:28:49.158Z,16.00
2018-02-03T10:29:49.138Z,16.00
2018-02-03T10:30:49.114Z,20.00
2018-02-03T10:31:49.092Z,16.00
2018-02-03T10:32:49.068Z,16.00
2018-02-03T10:33:49.044Z,16.00
2018-02-03T10:34:49.028Z,16.00
2018-02-03T10:35:48.999Z,16.00
2018-02-03T10:36:48.976Z,12.00
2018-02-03T10:37:48.952Z,16.00
2018-02-03T10:38:48.931Z,12.00
2018-02-03T10:39:48.907Z,12.00
2018-02-03T10:40:48.884Z,12.00
2018-02-03T10:41:48.861Z,12.00
2018-02-03T10:42:48.837Z,12.00
2018-02-03T10:43:48.814Z,12.00
2018-02-03T10:44:48.792Z,8.00
2018-02-03T10:45:48.767Z,12.00
2018-02-03T10:46:48.746Z,12.00
2018-02-03T10:47:48.723Z,12.00
2018-02-03T10:48:48.699Z,12.00
2018-02-03T10:49:48.675Z,8.00
2018-02-03T10:50:48.653Z,12.00
2018-02-03T10:51:48.630Z,12.00
2018-02-03T10:52:48.656Z,12.00
2018-02-03T10:53:48.584Z,12.00
2018-02-03T10:54:48.559Z,12.00
2018-02-03T10:55:48.537Z,8.00
2018-02-03T10:56:48.513Z,8.00
2018-02-03T10:57:48.490Z,12.00
2018-02-03T10:58:48.466Z,12.00
2018-02-03T10:59:48.442Z,12.00
2018-02-03T11:00:48.420Z,12.00
2018-02-03T11:01:48.397Z,12.00
2018-02-03T11:02:48.374Z,12.00
2018-02-03T11:03:48.351Z,8.00
2018-02-03T11:04:48.327Z,12.00
2018-02-03T11:05:48.304Z,8.00
2018-02-03T11:06:48.280Z,12.00
2018-02-03T11:07:48.258Z,12.00
2018-02-03T11:08:48.234Z,8.00
2018-02-03T11:09:48.210Z,12.00
2018-02-03T11:10:48.188Z,12.00
2018-02-03T11:11:48.163Z,8.00
2018-02-03T11:12:48.142Z,8.00
2018-02-03T11:13:48.117Z,12.00
2018-02-03T11:14:48.094Z,12.00
2018-02-03T11:15:48.071Z,12.00
2018-02-03T11:16:48.045Z,12.00
2018-02-03T11:17:48.024Z,12.00
2018-02-03T11:18:48.000Z,12.00
2018-02-03T11:19:47.976Z,16.00
2018-02-03T11:20:47.960Z,12.00
2018-02-03T11:21:47.932Z,12.00
2018-02-03T11:22:47.905Z,12.00
2018-02-03T11:23:47.884Z,16.00
2018-02-03T11:24:47.859Z,16.00
2018-02-03T11:25:47.838Z,16.00
2018-02-03T11:26:47.816Z,16.00
2018-02-03T11:27:47.789Z,16.00
2018-02-03T11:28:47.766Z,16.00
2018-02-03T11:29:47.743Z,20.00
2018-02-03T11:30:47.720Z,20.00
2018-02-03T11:31:47.698Z,20.00
2018-02-03T11:32:47.673Z,20.00
2018-02-03T11:33:47.650Z,24.00
2018-02-03T11:34:47.627Z,24.00
2018-02-03T11:35:47.604Z,20.00
2018-02-03T11:36:47.580Z,20.00
2018-02-03T11:37:47.557Z,20.00
2018-02-03T11:38:47.535Z,24.00
2018-02-03T11:39:47.512Z,24.00
2018-02-03T11:40:47.495Z,24.00
2018-02-03T11:41:47.464Z,24.00
2018-02-03T11:42:47.441Z,20.00
2018-02-03T11:43:47.418Z,20.00
2018-02-03T11:44:47.399Z,24.00
2018-02-03T11:45:47.371Z,24.00
2018-02-03T11:46:47.350Z,24.00
2018-02-03T11:47:47.330Z,24.00
2018-02-03T11:48:47.306Z,28.00
2018-02-03T11:49:47.278Z,28.00
2018-02-03T11:50:47.255Z,32.00
2018-02-03T11:51:47.232Z,36.00
2018-02-03T11:52:47.208Z,40.00
2018-02-03T11:53:47.184Z,44.00
2018-02-03T11:54:47.162Z,48.00
2018-02-03T11:55:47.140Z,48.00
2018-02-03T11:56:47.114Z,48.00
2018-02-03T11:57:47.096Z,56.00
2018-02-03T11:58:47.069Z,56.00
2018-02-03T11:59:47.046Z,60.00
2018-02-03T12:00:47.022Z,52.00
2018-02-03T12:01:46.998Z,52.00
2018-02-03T12:02:46.975Z,60.00
2018-02-03T12:03:46.953Z,60.00
2018-02-03T12:04:46.929Z,56.00
2018-02-03T12:05:46.906Z,52.00
2018-02-03T12:06:46.882Z,48.00
2018-02-03T12:07:46.860Z,44.00
2018-02-03T12:08:46.843Z,44.00
2018-02-03T12:09:46.812Z,44.00
2018-02-03T12:10:46.789Z,40.00
2018-02-03T12:11:46.768Z,40.00
2018-02-03T12:12:46.755Z,36.00
2018-02-03T12:13:46.720Z,36.00
2018-02-03T12:14:46.696Z,32.00
2018-02-03T12:15:46.673Z,32.00
2018-02-03T12:16:46.650Z,32.00
2018-02-03T12:17:46.627Z,24.00
2018-02-03T12:18:46.603Z,24.00
2018-02-03T12:19:46.581Z,20.00
2018-02-03T12:20:46.556Z,16.00
2018-02-03T12:21:46.534Z,16.00
2018-02-03T12:22:46.510Z,12.00
2018-02-03T12:23:46.486Z,8.00
2018-02-03T12:24:46.463Z,12.00
2018-02-03T12:25:46.442Z,12.00
2018-02-03T12:26:46.417Z,12.00
2018-02-03T12:27:46.393Z,12.00
2018-02-03T12:28:46.370Z,12.00
2018-02-03T12:29:46.345Z,12.00
2018-02-03T12:30:46.325Z,12.00
2018-02-03T12:31:46.301Z,12.00
2018-02-03T12:32:46.276Z,12.00
2018-02-03T12:33:46.252Z,16.00
2018-02-03T12:34:46.230Z,16.00
2018-02-03T12:35:46.207Z,12.00
2018-02-03T12:36:46.183Z,12.00
2018-02-03T12:37:46.160Z,12.00
2018-02-03T12:38:46.141Z,12.00
2018-02-03T12:39:46.113Z,12.00
2018-02-03T12:40:46.088Z,12.00
2018-02-03T12:41:46.073Z,8.00
2018-02-03T12:42:46.044Z,12.00
2018-02-03T12:43:46.020Z,8.00
2018-02-03T12:44:45.996Z,12.00
2018-02-03T12:45:45.972Z,8.00
2018-02-03T12:46:45.950Z,8.00
2018-02-03T12:47:45.926Z,8.00
2018-02-03T12:48:45.902Z,12.00
2018-02-03T12:49:45.879Z,8.00
2018-02-03T12:50:45.856Z,8.00
2018-02-03T12:51:45.833Z,12.00
2018-02-03T12:52:45.808Z,12.00
2018-02-03T12:53:45.786Z,8.00
2018-02-03T12:54:45.762Z,8.00
2018-02-03T12:55:45.740Z,8.00
2018-02-03T12:56:45.721Z,8.00
2018-02-03T12:57:45.692Z,4.00
2018-02-03T12:58:45.669Z,8.00
2018-02-03T12:59:45.645Z,8.00
2018-02-03T13:00:45.621Z,8.00
2018-02-03T13:01:45.597Z,8.00
2018-02-03T13:02:45.574Z,4.00
2018-02-03T13:03:45.552Z,4.00
2018-02-03T13:04:45.527Z,4.00
2018-02-03T13:05:45.504Z,4.00
2018-02-03T13:06:45.480Z,4.00
2018-02-03T13:07:45.458Z,8.00
2018-02-03T13:08:45.433Z,8.00
2018-02-03T13:09:45.411Z,8.00